sensor_id;sensor_type;location;lat;lon;timestamp;temperature;humidity
15450;DHT22;7826;49.784;9.934;2024-03-08T00:00:18;1.70;19.00
15450;DHT22;7826;49.784;9.934;2024-03-08T00:02:47;1.70;1.00
15450;DHT22;7826;49.784;9.934;2024-03-08T00:05:14;1.70;1.00
15450;DHT22;7826;49.784;9.934;2024-03-08T00:07:41;1.60;16.40
15450;DHT22;7826;49.784;9.934;2024-03-08T00:10:09;1.60;48.00
15450;DHT22;7826;49.784;9.934;2024-03-08T00:12:42;1.70;25.20
15450;DHT22;7826;49.784;9.934;2024-03-08T00:15:13;1.60;1.00
15450;DHT22;7826;49.784;9.934;2024-03-08T00:17:41;1.70;1.00
15450;DHT22;7826;49.784;9.934;2024-03-08T00:20:08;1.60;16.20
15450;DHT22;7826;49.784;9.934;2024-03-08T00:22:35;1.50;1.00
15450;DHT22;7826;49.784;9.934;2024-03-08T00:25:02;1.50;8.90
15450;DHT22;7826;49.784;9.934;2024-03-08T00:27:29;1.50;6.90
15450;DHT22;7826;49.784;9.934;2024-03-08T00:29:59;1.50;25.30
15450;DHT22;7826;49.784;9.934;2024-03-08T00:32:26;1.50;57.40
15450;DHT22;7826;49.784;9.934;2024-03-08T00:34:54;1.50;1.00
15450;DHT22;7826;49.784;9.934;2024-03-08T00:37:23;1.50;19.70
15450;DHT22;7826;49.784;9.934;2024-03-08T00:39:51;1.50;1.00
15450;DHT22;7826;49.784;9.934;2024-03-08T00:42:18;1.40;1.00
15450;DHT22;7826;49.784;9.934;2024-03-08T00:44:44;1.40;62.10
15450;DHT22;7826;49.784;9.934;2024-03-08T00:47:11;1.10;99.90
15450;DHT22;7826;49.784;9.934;2024-03-08T00:49:37;1.00;99.90
15450;DHT22;7826;49.784;9.934;2024-03-08T00:52:04;0.90;99.90
15450;DHT22;7826;49.784;9.934;2024-03-08T00:54:34;0.90;99.90
15450;DHT22;7826;49.784;9.934;2024-03-08T00:57:02;0.90;99.90
15450;DHT22;7826;49.784;9.934;2024-03-08T00:59:29;0.80;99.90
15450;DHT22;7826;49.784;9.934;2024-03-08T01:01:55;0.80;99.90
15450;DHT22;7826;49.784;9.934;2024-03-08T01:04:22;0.90;99.90
15450;DHT22;7826;49.784;9.934;2024-03-08T01:06:49;0.90;73.80
15450;DHT22;7826;49.784;9.934;2024-03-08T01:09:15;0.90;99.90
15450;DHT22;7826;49.784;9.934;2024-03-08T01:11:43;0.80;99.90
15450;DHT22;7826;49.784;9.934;2024-03-08T01:14:09;0.80;99.90
15450;DHT22;7826;49.784;9.934;2024-03-08T01:16:35;0.80;99.90
15450;DHT22;7826;49.784;9.934;2024-03-08T01:19:02;0.80;99.90
15450;DHT22;7826;49.784;9.934;2024-03-08T01:21:29;0.80;99.90
15450;DHT22;7826;49.784;9.934;2024-03-08T01:23:55;0.90;99.90
15450;DHT22;7826;49.784;9.934;2024-03-08T01:26:21;0.90;99.90
15450;DHT22;7826;49.784;9.934;2024-03-08T01:28:48;0.90;99.90
15450;DHT22;7826;49.784;9.934;2024-03-08T01:31:14;0.80;99.90
15450;DHT22;7826;49.784;9.934;2024-03-08T01:33:42;0.90;99.90
15450;DHT22;7826;49.784;9.934;2024-03-08T01:36:08;0.90;99.90
15450;DHT22;7826;49.784;9.934;2024-03-08T01:38:34;0.90;99.90
15450;DHT22;7826;49.784;9.934;2024-03-08T01:41:02;0.90;99.90
15450;DHT22;7826;49.784;9.934;2024-03-08T01:43:29;0.90;99.90
15450;DHT22;7826;49.784;9.934;2024-03-08T01:45:58;0.80;99.90
15450;DHT22;7826;49.784;9.934;2024-03-08T01:48:28;0.80;67.00
15450;DHT22;7826;49.784;9.934;2024-03-08T01:50:57;0.80;99.90
15450;DHT22;7826;49.784;9.934;2024-03-08T01:53:29;0.80;99.90
15450;DHT22;7826;49.784;9.934;2024-03-08T01:55:57;0.80;99.90
15450;DHT22;7826;49.784;9.934;2024-03-08T01:58:26;0.80;99.90
15450;DHT22;7826;49.784;9.934;2024-03-08T02:00:54;0.80;99.90
15450;DHT22;7826;49.784;9.934;2024-03-08T02:03:21;0.70;99.90
15450;DHT22;7826;49.784;9.934;2024-03-08T02:05:49;0.70;99.90
15450;DHT22;7826;49.784;9.934;2024-03-08T02:08:16;0.70;99.90
15450;DHT22;7826;49.784;9.934;2024-03-08T02:10:44;0.80;99.90
15450;DHT22;7826;49.784;9.934;2024-03-08T02:13:11;0.80;99.90
15450;DHT22;7826;49.784;9.934;2024-03-08T02:15:54;0.80;99.90
15450;DHT22;7826;49.784;9.934;2024-03-08T02:18:21;0.80;99.90
15450;DHT22;7826;49.784;9.934;2024-03-08T02:20:59;0.70;99.90
15450;DHT22;7826;49.784;9.934;2024-03-08T02:23:26;0.70;99.90
15450;DHT22;7826;49.784;9.934;2024-03-08T02:25:54;0.70;99.90
15450;DHT22;7826;49.784;9.934;2024-03-08T02:28:20;0.60;99.90
15450;DHT22;7826;49.784;9.934;2024-03-08T02:30:47;0.50;99.90
15450;DHT22;7826;49.784;9.934;2024-03-08T02:33:15;0.40;99.90
15450;DHT22;7826;49.784;9.934;2024-03-08T02:35:44;0.30;99.90
15450;DHT22;7826;49.784;9.934;2024-03-08T02:38:16;0.30;99.90
15450;DHT22;7826;49.784;9.934;2024-03-08T02:40:43;0.30;99.90
15450;DHT22;7826;49.784;9.934;2024-03-08T02:43:10;0.30;1.00
15450;DHT22;7826;49.784;9.934;2024-03-08T02:45:37;0.30;99.90
15450;DHT22;7826;49.784;9.934;2024-03-08T02:48:03;0.30;99.90
15450;DHT22;7826;49.784;9.934;2024-03-08T02:50:29;0.20;99.90
15450;DHT22;7826;49.784;9.934;2024-03-08T02:52:56;0.20;99.90
15450;DHT22;7826;49.784;9.934;2024-03-08T02:55:22;0.20;99.90
15450;DHT22;7826;49.784;9.934;2024-03-08T02:57:48;0.20;1.00
15450;DHT22;7826;49.784;9.934;2024-03-08T03:00:14;0.20;99.90
15450;DHT22;7826;49.784;9.934;2024-03-08T03:02:41;0.20;99.90
15450;DHT22;7826;49.784;9.934;2024-03-08T03:05:08;0.20;1.00
15450;DHT22;7826;49.784;9.934;2024-03-08T03:07:36;0.20;99.90
15450;DHT22;7826;49.784;9.934;2024-03-08T03:10:04;0.20;99.90
15450;DHT22;7826;49.784;9.934;2024-03-08T03:12:31;0.20;99.90
15450;DHT22;7826;49.784;9.934;2024-03-08T03:14:58;0.20;99.90
15450;DHT22;7826;49.784;9.934;2024-03-08T03:17:24;0.20;99.90
15450;DHT22;7826;49.784;9.934;2024-03-08T03:19:51;0.20;1.00
15450;DHT22;7826;49.784;9.934;2024-03-08T03:22:18;0.30;1.00
15450;DHT22;7826;49.784;9.934;2024-03-08T03:24:45;0.20;1.00
15450;DHT22;7826;49.784;9.934;2024-03-08T03:27:15;0.10;1.00
15450;DHT22;7826;49.784;9.934;2024-03-08T03:29:42;0.10;1.00
15450;DHT22;7826;49.784;9.934;2024-03-08T03:32:12;0.00;99.90
15450;DHT22;7826;49.784;9.934;2024-03-08T03:34:39;0.00;99.90
15450;DHT22;7826;49.784;9.934;2024-03-08T03:37:06;0.00;99.90
15450;DHT22;7826;49.784;9.934;2024-03-08T03:39:34;0.00;99.90
15450;DHT22;7826;49.784;9.934;2024-03-08T03:42:00;-0.10;1.00
15450;DHT22;7826;49.784;9.934;2024-03-08T03:44:29;-0.10;1.00
15450;DHT22;7826;49.784;9.934;2024-03-08T03:46:56;-0.10;99.90
15450;DHT22;7826;49.784;9.934;2024-03-08T03:49:22;-0.10;99.90
15450;DHT22;7826;49.784;9.934;2024-03-08T03:51:49;-0.10;99.90
15450;DHT22;7826;49.784;9.934;2024-03-08T03:54:16;-0.20;99.90
15450;DHT22;7826;49.784;9.934;2024-03-08T03:56:42;-0.20;99.90
15450;DHT22;7826;49.784;9.934;2024-03-08T03:59:08;-0.20;99.90
15450;DHT22;7826;49.784;9.934;2024-03-08T04:01:34;-0.30;99.90
15450;DHT22;7826;49.784;9.934;2024-03-08T04:04:00;-0.30;1.00
15450;DHT22;7826;49.784;9.934;2024-03-08T04:06:26;-0.30;1.00
15450;DHT22;7826;49.784;9.934;2024-03-08T04:08:52;-0.30;1.00
15450;DHT22;7826;49.784;9.934;2024-03-08T04:11:18;-0.20;1.00
15450;DHT22;7826;49.784;9.934;2024-03-08T04:13:44;-0.20;1.00
15450;DHT22;7826;49.784;9.934;2024-03-08T04:16:11;-0.20;1.00
15450;DHT22;7826;49.784;9.934;2024-03-08T04:18:37;-0.20;1.00
15450;DHT22;7826;49.784;9.934;2024-03-08T04:21:06;-0.20;1.00
15450;DHT22;7826;49.784;9.934;2024-03-08T04:23:34;-0.20;1.00
15450;DHT22;7826;49.784;9.934;2024-03-08T04:26:03;-0.20;1.00
15450;DHT22;7826;49.784;9.934;2024-03-08T04:28:34;-0.20;1.00
15450;DHT22;7826;49.784;9.934;2024-03-08T04:31:00;-0.20;1.00
15450;DHT22;7826;49.784;9.934;2024-03-08T04:33:27;-0.20;1.00
15450;DHT22;7826;49.784;9.934;2024-03-08T04:35:53;-0.30;1.00
15450;DHT22;7826;49.784;9.934;2024-03-08T04:38:20;-0.30;1.00
15450;DHT22;7826;49.784;9.934;2024-03-08T04:40:46;-0.30;1.00
15450;DHT22;7826;49.784;9.934;2024-03-08T04:43:12;-0.30;1.00
15450;DHT22;7826;49.784;9.934;2024-03-08T04:45:38;-0.40;1.00
15450;DHT22;7826;49.784;9.934;2024-03-08T04:48:05;-0.40;1.00
15450;DHT22;7826;49.784;9.934;2024-03-08T04:50:31;-0.40;1.00
15450;DHT22;7826;49.784;9.934;2024-03-08T04:52:57;-0.50;1.00
15450;DHT22;7826;49.784;9.934;2024-03-08T04:55:23;-0.60;1.00
15450;DHT22;7826;49.784;9.934;2024-03-08T04:57:50;-0.60;1.00
15450;DHT22;7826;49.784;9.934;2024-03-08T05:00:17;-0.60;1.00
15450;DHT22;7826;49.784;9.934;2024-03-08T05:02:43;-0.60;1.00
15450;DHT22;7826;49.784;9.934;2024-03-08T05:05:10;-0.60;1.00
15450;DHT22;7826;49.784;9.934;2024-03-08T05:07:39;-0.60;1.00
15450;DHT22;7826;49.784;9.934;2024-03-08T05:10:06;-0.70;1.00
15450;DHT22;7826;49.784;9.934;2024-03-08T05:12:36;-0.70;1.00
15450;DHT22;7826;49.784;9.934;2024-03-08T05:15:02;-0.70;1.00
15450;DHT22;7826;49.784;9.934;2024-03-08T05:17:28;-0.60;1.00
15450;DHT22;7826;49.784;9.934;2024-03-08T05:19:56;-0.60;1.00
15450;DHT22;7826;49.784;9.934;2024-03-08T05:22:22;-0.70;1.00
15450;DHT22;7826;49.784;9.934;2024-03-08T05:24:48;-0.70;1.00
15450;DHT22;7826;49.784;9.934;2024-03-08T05:27:15;-0.70;1.00
15450;DHT22;7826;49.784;9.934;2024-03-08T05:29:41;-0.80;1.00
15450;DHT22;7826;49.784;9.934;2024-03-08T05:32:07;-0.80;1.00
15450;DHT22;7826;49.784;9.934;2024-03-08T05:34:33;-0.70;1.00
15450;DHT22;7826;49.784;9.934;2024-03-08T05:36:59;-0.70;1.00
15450;DHT22;7826;49.784;9.934;2024-03-08T05:39:26;-0.80;1.00
15450;DHT22;7826;49.784;9.934;2024-03-08T05:41:52;-0.80;1.00
15450;DHT22;7826;49.784;9.934;2024-03-08T05:44:18;-0.80;1.00
15450;DHT22;7826;49.784;9.934;2024-03-08T05:46:44;-0.80;1.00
15450;DHT22;7826;49.784;9.934;2024-03-08T05:49:12;-0.90;1.00
15450;DHT22;7826;49.784;9.934;2024-03-08T05:51:40;-0.90;1.00
15450;DHT22;7826;49.784;9.934;2024-03-08T05:54:12;-0.90;1.00
15450;DHT22;7826;49.784;9.934;2024-03-08T05:56:39;-0.70;1.00
15450;DHT22;7826;49.784;9.934;2024-03-08T05:59:10;-0.90;1.00
15450;DHT22;7826;49.784;9.934;2024-03-08T06:01:36;-0.80;1.00
15450;DHT22;7826;49.784;9.934;2024-03-08T06:04:03;-0.80;1.00
15450;DHT22;7826;49.784;9.934;2024-03-08T06:06:29;-0.80;1.00
15450;DHT22;7826;49.784;9.934;2024-03-08T06:08:55;-0.80;1.00
15450;DHT22;7826;49.784;9.934;2024-03-08T06:11:25;-0.80;1.00
15450;DHT22;7826;49.784;9.934;2024-03-08T06:13:56;-0.80;1.00
15450;DHT22;7826;49.784;9.934;2024-03-08T06:16:28;-0.80;1.00
15450;DHT22;7826;49.784;9.934;2024-03-08T06:18:58;-0.70;1.00
15450;DHT22;7826;49.784;9.934;2024-03-08T06:21:24;-0.70;1.00
15450;DHT22;7826;49.784;9.934;2024-03-08T06:23:54;-0.70;1.00
15450;DHT22;7826;49.784;9.934;2024-03-08T06:26:24;-0.60;1.00
15450;DHT22;7826;49.784;9.934;2024-03-08T06:28:51;-0.60;1.00
15450;DHT22;7826;49.784;9.934;2024-03-08T06:31:17;-0.50;1.00
15450;DHT22;7826;49.784;9.934;2024-03-08T06:33:43;-0.50;1.00
15450;DHT22;7826;49.784;9.934;2024-03-08T06:36:09;-0.40;1.00
15450;DHT22;7826;49.784;9.934;2024-03-08T06:38:40;-0.30;1.00
15450;DHT22;7826;49.784;9.934;2024-03-08T06:41:11;-0.30;1.00
15450;DHT22;7826;49.784;9.934;2024-03-08T06:43:45;-0.20;1.00
15450;DHT22;7826;49.784;9.934;2024-03-08T06:46:11;-0.20;1.00
15450;DHT22;7826;49.784;9.934;2024-03-08T06:48:39;-0.10;1.00
15450;DHT22;7826;49.784;9.934;2024-03-08T06:51:06;0.00;1.00
15450;DHT22;7826;49.784;9.934;2024-03-08T06:53:32;0.10;1.00
15450;DHT22;7826;49.784;9.934;2024-03-08T06:55:59;0.10;1.00
15450;DHT22;7826;49.784;9.934;2024-03-08T06:58:25;0.20;1.00
15450;DHT22;7826;49.784;9.934;2024-03-08T07:00:51;0.30;1.00
15450;DHT22;7826;49.784;9.934;2024-03-08T07:03:24;0.40;1.00
15450;DHT22;7826;49.784;9.934;2024-03-08T07:05:50;0.40;1.00
15450;DHT22;7826;49.784;9.934;2024-03-08T07:08:16;0.50;1.00
15450;DHT22;7826;49.784;9.934;2024-03-08T07:10:42;0.60;1.00
15450;DHT22;7826;49.784;9.934;2024-03-08T07:13:11;0.70;1.00
15450;DHT22;7826;49.784;9.934;2024-03-08T07:15:37;0.80;1.00
15450;DHT22;7826;49.784;9.934;2024-03-08T07:18:03;0.90;1.00
15450;DHT22;7826;49.784;9.934;2024-03-08T07:20:29;1.00;1.00
15450;DHT22;7826;49.784;9.934;2024-03-08T07:22:56;1.10;1.00
15450;DHT22;7826;49.784;9.934;2024-03-08T07:25:22;1.20;1.00
15450;DHT22;7826;49.784;9.934;2024-03-08T07:27:52;1.20;1.00
15450;DHT22;7826;49.784;9.934;2024-03-08T07:30:19;1.40;1.00
15450;DHT22;7826;49.784;9.934;2024-03-08T07:33:05;1.50;1.00
15450;DHT22;7826;49.784;9.934;2024-03-08T07:35:33;1.60;1.00
15450;DHT22;7826;49.784;9.934;2024-03-08T07:38:07;1.70;1.00
15450;DHT22;7826;49.784;9.934;2024-03-08T07:40:41;1.90;1.00
15450;DHT22;7826;49.784;9.934;2024-03-08T07:43:10;2.30;1.00
15450;DHT22;7826;49.784;9.934;2024-03-08T07:45:40;2.80;1.00
15450;DHT22;7826;49.784;9.934;2024-03-08T07:48:07;3.40;99.90
15450;DHT22;7826;49.784;9.934;2024-03-08T07:50:37;4.10;99.90
15450;DHT22;7826;49.784;9.934;2024-03-08T07:53:08;4.80;99.90
15450;DHT22;7826;49.784;9.934;2024-03-08T07:55:34;4.70;1.00
15450;DHT22;7826;49.784;9.934;2024-03-08T07:58:01;5.50;1.00
15450;DHT22;7826;49.784;9.934;2024-03-08T08:00:29;6.00;1.00
15450;DHT22;7826;49.784;9.934;2024-03-08T08:02:57;5.50;1.00
15450;DHT22;7826;49.784;9.934;2024-03-08T08:05:23;5.90;14.70
15450;DHT22;7826;49.784;9.934;2024-03-08T08:07:49;6.90;99.90
15450;DHT22;7826;49.784;9.934;2024-03-08T08:10:18;6.70;99.90
15450;DHT22;7826;49.784;9.934;2024-03-08T08:12:48;7.60;1.00
15450;DHT22;7826;49.784;9.934;2024-03-08T08:15:14;7.70;1.00
15450;DHT22;7826;49.784;9.934;2024-03-08T08:17:44;7.10;99.90
15450;DHT22;7826;49.784;9.934;2024-03-08T08:20:11;7.30;1.00
15450;DHT22;7826;49.784;9.934;2024-03-08T08:22:39;7.80;1.00
15450;DHT22;7826;49.784;9.934;2024-03-08T08:25:07;8.30;1.00
15450;DHT22;7826;49.784;9.934;2024-03-08T08:27:33;7.40;1.00
15450;DHT22;7826;49.784;9.934;2024-03-08T08:29:59;7.40;99.90
15450;DHT22;7826;49.784;9.934;2024-03-08T08:32:26;8.00;1.00
15450;DHT22;7826;49.784;9.934;2024-03-08T08:34:52;7.40;1.00
15450;DHT22;7826;49.784;9.934;2024-03-08T08:37:18;7.60;99.90
15450;DHT22;7826;49.784;9.934;2024-03-08T08:39:44;7.90;1.00
15450;DHT22;7826;49.784;9.934;2024-03-08T08:42:10;7.30;1.00
15450;DHT22;7826;49.784;9.934;2024-03-08T08:44:37;7.40;1.00
15450;DHT22;7826;49.784;9.934;2024-03-08T08:47:03;8.30;99.90
15450;DHT22;7826;49.784;9.934;2024-03-08T08:49:29;7.30;99.90
15450;DHT22;7826;49.784;9.934;2024-03-08T08:51:56;7.60;1.00
15450;DHT22;7826;49.784;9.934;2024-03-08T08:54:24;6.90;1.00
15450;DHT22;7826;49.784;9.934;2024-03-08T08:56:51;6.80;1.00
15450;DHT22;7826;49.784;9.934;2024-03-08T08:59:17;7.00;1.00
15450;DHT22;7826;49.784;9.934;2024-03-08T09:01:45;7.10;99.90
15450;DHT22;7826;49.784;9.934;2024-03-08T09:04:15;7.80;1.00
15450;DHT22;7826;49.784;9.934;2024-03-08T09:06:42;7.40;1.00
15450;DHT22;7826;49.784;9.934;2024-03-08T09:09:08;7.90;1.00
15450;DHT22;7826;49.784;9.934;2024-03-08T09:11:35;7.60;1.00
15450;DHT22;7826;49.784;9.934;2024-03-08T09:14:01;7.10;1.00
15450;DHT22;7826;49.784;9.934;2024-03-08T09:16:27;6.90;1.00
15450;DHT22;7826;49.784;9.934;2024-03-08T09:18:54;7.20;1.00
15450;DHT22;7826;49.784;9.934;2024-03-08T09:21:20;6.90;1.00
15450;DHT22;7826;49.784;9.934;2024-03-08T09:23:46;6.70;1.00
15450;DHT22;7826;49.784;9.934;2024-03-08T09:26:12;6.40;99.90
15450;DHT22;7826;49.784;9.934;2024-03-08T09:28:38;6.60;99.90
15450;DHT22;7826;49.784;9.934;2024-03-08T09:31:05;6.00;1.00
15450;DHT22;7826;49.784;9.934;2024-03-08T09:33:31;6.10;99.90
15450;DHT22;7826;49.784;9.934;2024-03-08T09:35:57;6.30;1.00
15450;DHT22;7826;49.784;9.934;2024-03-08T09:38:23;6.40;1.00
15450;DHT22;7826;49.784;9.934;2024-03-08T09:40:51;6.60;1.00
15450;DHT22;7826;49.784;9.934;2024-03-08T09:43:19;6.30;1.00
15450;DHT22;7826;49.784;9.934;2024-03-08T09:45:45;6.90;1.00
15450;DHT22;7826;49.784;9.934;2024-03-08T09:48:15;7.20;1.00
15450;DHT22;7826;49.784;9.934;2024-03-08T09:50:45;7.20;1.00
15450;DHT22;7826;49.784;9.934;2024-03-08T09:53:12;6.80;99.90
15450;DHT22;7826;49.784;9.934;2024-03-08T09:55:38;6.70;99.90
15450;DHT22;7826;49.784;9.934;2024-03-08T09:58:12;6.50;1.00
15450;DHT22;7826;49.784;9.934;2024-03-08T10:00:41;6.40;1.00
15450;DHT22;7826;49.784;9.934;2024-03-08T10:03:08;6.20;1.00
15450;DHT22;7826;49.784;9.934;2024-03-08T10:05:34;6.00;99.90
15450;DHT22;7826;49.784;9.934;2024-03-08T10:08:01;6.10;1.00
15450;DHT22;7826;49.784;9.934;2024-03-08T10:10:27;6.10;99.90
15450;DHT22;7826;49.784;9.934;2024-03-08T10:12:53;6.00;99.90
15450;DHT22;7826;49.784;9.934;2024-03-08T10:15:20;6.20;99.90
15450;DHT22;7826;49.784;9.934;2024-03-08T10:17:46;6.10;99.90
15450;DHT22;7826;49.784;9.934;2024-03-08T10:20:16;6.30;99.90
15450;DHT22;7826;49.784;9.934;2024-03-08T10:22:43;6.40;1.00
15450;DHT22;7826;49.784;9.934;2024-03-08T10:25:11;6.30;13.20
15450;DHT22;7826;49.784;9.934;2024-03-08T10:27:41;6.40;99.90
15450;DHT22;7826;49.784;9.934;2024-03-08T10:30:14;6.50;1.00
15450;DHT22;7826;49.784;9.934;2024-03-08T10:32:41;6.50;1.00
15450;DHT22;7826;49.784;9.934;2024-03-08T10:35:10;6.70;1.00
15450;DHT22;7826;49.784;9.934;2024-03-08T10:37:49;6.90;1.00
15450;DHT22;7826;49.784;9.934;2024-03-08T10:40:26;7.00;99.90
15450;DHT22;7826;49.784;9.934;2024-03-08T10:42:57;7.30;99.90
15450;DHT22;7826;49.784;9.934;2024-03-08T10:45:37;7.30;1.00
15450;DHT22;7826;49.784;9.934;2024-03-08T10:48:06;7.30;1.00
15450;DHT22;7826;49.784;9.934;2024-03-08T10:50:35;7.40;27.40
15450;DHT22;7826;49.784;9.934;2024-03-08T10:53:01;7.20;1.00
15450;DHT22;7826;49.784;9.934;2024-03-08T10:55:30;7.10;1.00
15450;DHT22;7826;49.784;9.934;2024-03-08T10:57:59;7.20;1.00
15450;DHT22;7826;49.784;9.934;2024-03-08T11:00:26;7.10;1.00
15450;DHT22;7826;49.784;9.934;2024-03-08T11:02:56;7.10;13.10
15450;DHT22;7826;49.784;9.934;2024-03-08T11:05:38;7.20;1.00
15450;DHT22;7826;49.784;9.934;2024-03-08T11:08:20;7.80;14.10
15450;DHT22;7826;49.784;9.934;2024-03-08T11:10:50;8.20;1.00
15450;DHT22;7826;49.784;9.934;2024-03-08T11:13:36;8.20;99.90
15450;DHT22;7826;49.784;9.934;2024-03-08T11:16:10;8.00;99.90
15450;DHT22;7826;49.784;9.934;2024-03-08T11:18:37;7.80;61.70
15450;DHT22;7826;49.784;9.934;2024-03-08T11:21:04;7.50;99.90
15450;DHT22;7826;49.784;9.934;2024-03-08T11:23:36;7.90;99.90
15450;DHT22;7826;49.784;9.934;2024-03-08T11:26:03;8.10;93.90
15450;DHT22;7826;49.784;9.934;2024-03-08T11:28:33;8.30;99.90
15450;DHT22;7826;49.784;9.934;2024-03-08T11:33:34;8.80;1.00
15450;DHT22;7826;49.784;9.934;2024-03-08T11:36:23;8.90;1.00
15450;DHT22;7826;49.784;9.934;2024-03-08T11:38:53;8.90;1.00
15450;DHT22;7826;49.784;9.934;2024-03-08T11:41:23;9.10;1.00
15450;DHT22;7826;49.784;9.934;2024-03-08T11:44:01;9.10;1.00
15450;DHT22;7826;49.784;9.934;2024-03-08T11:46:31;9.00;1.00
15450;DHT22;7826;49.784;9.934;2024-03-08T11:48:57;9.30;1.00
15450;DHT22;7826;49.784;9.934;2024-03-08T11:51:23;9.30;1.00
15450;DHT22;7826;49.784;9.934;2024-03-08T11:53:50;9.80;1.00
15450;DHT22;7826;49.784;9.934;2024-03-08T11:56:16;10.50;1.00
15450;DHT22;7826;49.784;9.934;2024-03-08T11:58:55;10.60;99.90
15450;DHT22;7826;49.784;9.934;2024-03-08T12:01:25;11.40;99.90
15450;DHT22;7826;49.784;9.934;2024-03-08T12:03:55;11.70;99.90
15450;DHT22;7826;49.784;9.934;2024-03-08T12:06:25;10.80;99.90
15450;DHT22;7826;49.784;9.934;2024-03-08T12:08:51;11.30;99.90
15450;DHT22;7826;49.784;9.934;2024-03-08T12:11:20;10.60;99.40
15450;DHT22;7826;49.784;9.934;2024-03-08T12:13:49;10.50;97.10
15450;DHT22;7826;49.784;9.934;2024-03-08T12:16:17;11.10;99.90
15450;DHT22;7826;49.784;9.934;2024-03-08T12:18:44;11.40;99.90
15450;DHT22;7826;49.784;9.934;2024-03-08T12:21:11;11.20;75.50
15450;DHT22;7826;49.784;9.934;2024-03-08T12:23:40;11.20;64.50
15450;DHT22;7826;49.784;9.934;2024-03-08T12:26:17;11.70;90.90
15450;DHT22;7826;49.784;9.934;2024-03-08T12:28:45;11.50;42.60
15450;DHT22;7826;49.784;9.934;2024-03-08T12:31:18;12.20;99.90
15450;DHT22;7826;49.784;9.934;2024-03-08T12:33:53;13.30;99.90
15450;DHT22;7826;49.784;9.934;2024-03-08T12:36:20;12.80;17.80
15450;DHT22;7826;49.784;9.934;2024-03-08T12:38:47;11.80;14.60
15450;DHT22;7826;49.784;9.934;2024-03-08T12:41:17;12.20;41.50
15450;DHT22;7826;49.784;9.934;2024-03-08T12:43:45;12.60;90.00
15450;DHT22;7826;49.784;9.934;2024-03-08T12:46:18;13.30;89.40
15450;DHT22;7826;49.784;9.934;2024-03-08T12:48:48;14.10;92.40
15450;DHT22;7826;49.784;9.934;2024-03-08T12:51:16;13.70;22.40
15450;DHT22;7826;49.784;9.934;2024-03-08T12:53:44;14.30;24.20
15450;DHT22;7826;49.784;9.934;2024-03-08T12:56:28;14.20;9.40
15450;DHT22;7826;49.784;9.934;2024-03-08T12:58:54;13.70;42.20
15450;DHT22;7826;49.784;9.934;2024-03-08T13:01:20;14.20;2.10
15450;DHT22;7826;49.784;9.934;2024-03-08T13:03:46;14.30;2.30
15450;DHT22;7826;49.784;9.934;2024-03-08T13:06:14;13.50;1.00
15450;DHT22;7826;49.784;9.934;2024-03-08T13:08:40;13.10;1.00
15450;DHT22;7826;49.784;9.934;2024-03-08T13:11:07;13.70;4.60
15450;DHT22;7826;49.784;9.934;2024-03-08T13:13:34;13.00;1.00
15450;DHT22;7826;49.784;9.934;2024-03-08T13:16:06;13.00;1.00
15450;DHT22;7826;49.784;9.934;2024-03-08T13:18:38;13.00;1.00
15450;DHT22;7826;49.784;9.934;2024-03-08T13:21:08;12.20;1.00
15450;DHT22;7826;49.784;9.934;2024-03-08T13:23:36;12.60;1.00
15450;DHT22;7826;49.784;9.934;2024-03-08T13:26:10;13.00;1.00
15450;DHT22;7826;49.784;9.934;2024-03-08T13:28:45;11.90;1.00
15450;DHT22;7826;49.784;9.934;2024-03-08T13:31:12;11.00;1.00
15450;DHT22;7826;49.784;9.934;2024-03-08T13:33:39;11.90;1.00
15450;DHT22;7826;49.784;9.934;2024-03-08T13:36:09;12.20;1.00
15450;DHT22;7826;49.784;9.934;2024-03-08T13:38:45;12.60;1.00
15450;DHT22;7826;49.784;9.934;2024-03-08T13:41:12;12.40;1.00
15450;DHT22;7826;49.784;9.934;2024-03-08T13:43:46;12.30;1.00
15450;DHT22;7826;49.784;9.934;2024-03-08T13:46:14;11.30;1.00
15450;DHT22;7826;49.784;9.934;2024-03-08T13:48:40;10.80;1.00
15450;DHT22;7826;49.784;9.934;2024-03-08T13:51:07;10.70;1.00
15450;DHT22;7826;49.784;9.934;2024-03-08T13:53:36;10.50;1.00
15450;DHT22;7826;49.784;9.934;2024-03-08T13:56:03;10.70;1.00
15450;DHT22;7826;49.784;9.934;2024-03-08T13:58:29;11.20;1.00
15450;DHT22;7826;49.784;9.934;2024-03-08T14:00:55;11.60;3.60
15450;DHT22;7826;49.784;9.934;2024-03-08T14:03:22;11.30;1.00
15450;DHT22;7826;49.784;9.934;2024-03-08T14:05:49;11.10;1.00
15450;DHT22;7826;49.784;9.934;2024-03-08T14:08:15;10.90;1.00
15450;DHT22;7826;49.784;9.934;2024-03-08T14:10:43;10.60;1.00
15450;DHT22;7826;49.784;9.934;2024-03-08T14:13:12;11.00;72.20
15450;DHT22;7826;49.784;9.934;2024-03-08T14:15:41;11.00;96.20
15450;DHT22;7826;49.784;9.934;2024-03-08T14:18:08;11.20;99.90
15450;DHT22;7826;49.784;9.934;2024-03-08T14:20:34;11.40;99.90
15450;DHT22;7826;49.784;9.934;2024-03-08T14:23:00;10.80;30.20
15450;DHT22;7826;49.784;9.934;2024-03-08T14:25:26;10.40;28.50
15450;DHT22;7826;49.784;9.934;2024-03-08T14:27:56;10.40;73.80
15450;DHT22;7826;49.784;9.934;2024-03-08T14:30:28;10.00;43.60
15450;DHT22;7826;49.784;9.934;2024-03-08T14:33:05;10.20;99.90
15450;DHT22;7826;49.784;9.934;2024-03-08T14:35:31;10.10;95.30
15450;DHT22;7826;49.784;9.934;2024-03-08T14:37:58;9.90;89.30
15450;DHT22;7826;49.784;9.934;2024-03-08T14:40:24;10.00;99.90
15450;DHT22;7826;49.784;9.934;2024-03-08T14:42:52;9.80;99.90
15450;DHT22;7826;49.784;9.934;2024-03-08T14:45:18;9.90;99.90
15450;DHT22;7826;49.784;9.934;2024-03-08T14:47:47;10.00;99.90
15450;DHT22;7826;49.784;9.934;2024-03-08T14:50:21;10.00;99.90
15450;DHT22;7826;49.784;9.934;2024-03-08T14:52:48;10.00;99.90
15450;DHT22;7826;49.784;9.934;2024-03-08T14:55:15;9.90;99.90
15450;DHT22;7826;49.784;9.934;2024-03-08T14:57:42;9.90;99.90
15450;DHT22;7826;49.784;9.934;2024-03-08T15:00:12;9.70;99.90
15450;DHT22;7826;49.784;9.934;2024-03-08T15:03:05;9.80;99.90
15450;DHT22;7826;49.784;9.934;2024-03-08T15:05:33;9.80;99.90
15450;DHT22;7826;49.784;9.934;2024-03-08T15:08:04;9.80;99.90
15450;DHT22;7826;49.784;9.934;2024-03-08T15:10:35;9.70;99.90
15450;DHT22;7826;49.784;9.934;2024-03-08T15:13:02;9.60;99.90
15450;DHT22;7826;49.784;9.934;2024-03-08T15:15:34;9.50;99.90
15450;DHT22;7826;49.784;9.934;2024-03-08T15:18:02;9.40;99.90
15450;DHT22;7826;49.784;9.934;2024-03-08T15:20:29;9.30;99.90
15450;DHT22;7826;49.784;9.934;2024-03-08T15:23:00;9.40;99.90
15450;DHT22;7826;49.784;9.934;2024-03-08T15:25:26;9.40;99.90
15450;DHT22;7826;49.784;9.934;2024-03-08T15:27:54;9.40;99.90
15450;DHT22;7826;49.784;9.934;2024-03-08T15:30:23;9.30;99.90
15450;DHT22;7826;49.784;9.934;2024-03-08T15:32:52;9.20;99.90
15450;DHT22;7826;49.784;9.934;2024-03-08T15:35:27;9.10;99.90
15450;DHT22;7826;49.784;9.934;2024-03-08T15:37:53;9.10;99.90
15450;DHT22;7826;49.784;9.934;2024-03-08T15:40:21;9.00;99.90
15450;DHT22;7826;49.784;9.934;2024-03-08T15:42:59;9.10;99.90
15450;DHT22;7826;49.784;9.934;2024-03-08T15:45:26;9.10;99.90
15450;DHT22;7826;49.784;9.934;2024-03-08T15:47:55;9.10;99.90
15450;DHT22;7826;49.784;9.934;2024-03-08T15:50:22;9.10;1.00
15450;DHT22;7826;49.784;9.934;2024-03-08T15:52:50;9.00;1.00
15450;DHT22;7826;49.784;9.934;2024-03-08T15:55:17;9.10;1.00
15450;DHT22;7826;49.784;9.934;2024-03-08T15:57:49;9.00;1.00
15450;DHT22;7826;49.784;9.934;2024-03-08T16:00:17;9.00;1.00
15450;DHT22;7826;49.784;9.934;2024-03-08T16:03:04;8.90;1.00
15450;DHT22;7826;49.784;9.934;2024-03-08T16:05:40;8.90;1.00
15450;DHT22;7826;49.784;9.934;2024-03-08T16:08:16;8.70;1.00
15450;DHT22;7826;49.784;9.934;2024-03-08T16:10:44;8.70;1.00
15450;DHT22;7826;49.784;9.934;2024-03-08T16:13:13;8.60;1.00